Time;durP1;ratioP1;P1;durP2;ratioP2;P2;SDS_P1;SDS_P2;PMS_P1;PMS_P2;Temp;Humidity;BMP_temperature;BMP_pressure;BME280_temperature;BME280_humidity;BME280_pressure;Samples;Min_cycle;Max_cycle;Signal;HPM_P1;HPM_P2
2024/03/01 00:01:36;;;;;;;67.95;29.88;;;;;;;3.81;100.00;96340.69;5020717;28;20827;-84
2024/03/01 00:04:04;;;;;;;59.70;28.65;;;;;;;3.81;100.00;96345.94;5023164;28;20901;-84
2024/03/01 00:06:30;;;;;;;48.25;23.10;;;;;;;3.81;100.00;96340.69;5023869;28;20403;-85
2024/03/01 00:08:56;;;;;;;47.20;23.08;;;;;;;3.80;100.00;96345.13;5020958;28;20873;-84
2024/03/01 00:11:22;;;;;;;43.50;20.70;;;;;;;3.80;100.00;96354.81;5020771;28;20743;-85
2024/03/01 00:13:48;;;;;;;56.20;25.80;;;;;;;3.79;100.00;96353.22;5021822;28;20832;-85
2024/03/01 00:16:14;;;;;;;49.65;23.35;;;;;;;3.79;100.00;96359.25;5025486;28;20403;-85
2024/03/01 00:18:41;;;;;;;53.15;25.77;;;;;;;3.79;100.00;96358.44;5025834;28;20415;-85
2024/03/01 00:21:14;;;;;;;58.13;27.60;;;;;;;3.79;100.00;96364.47;5025926;28;20384;-83
2024/03/01 00:23:40;;;;;;;53.92;26.17;;;;;;;3.84;100.00;96369.00;5022809;28;20789;-83
2024/03/01 00:26:07;;;;;;;66.47;31.40;;;;;;;3.90;100.00;96370.72;5021331;28;20811;-84
2024/03/01 00:28:34;;;;;;;57.80;27.33;;;;;;;3.92;100.00;96370.47;5020395;28;20480;-86
2024/03/01 00:31:00;;;;;;;50.67;23.97;;;;;;;3.96;100.00;96374.22;5021493;28;20393;-84
2024/03/01 00:33:26;;;;;;;45.28;22.30;;;;;;;3.98;100.00;96372.97;5020703;28;20433;-85
2024/03/01 00:35:53;;;;;;;57.10;26.42;;;;;;;4.01;100.00;96372.47;5020095;28;20408;-84
2024/03/01 00:38:21;;;;;;;61.15;28.08;;;;;;;3.98;100.00;96374.78;5021572;28;20420;-83
2024/03/01 00:40:47;;;;;;;68.15;29.75;;;;;;;4.00;100.00;96370.88;5020747;28;20496;-86
2024/03/01 00:43:13;;;;;;;62.10;29.60;;;;;;;3.99;100.00;96356.19;5021586;28;20495;-83
2024/03/01 00:45:40;;;;;;;62.17;28.50;;;;;;;3.98;100.00;96362.50;5019574;28;20801;-82
2024/03/01 00:48:08;;;;;;;56.58;27.30;;;;;;;3.95;100.00;96362.94;5020551;28;20466;-84
2024/03/01 00:50:35;;;;;;;49.73;23.83;;;;;;;3.92;100.00;96357.38;5021467;28;20408;-81
2024/03/01 00:53:01;;;;;;;49.20;22.90;;;;;;;3.91;100.00;96353.97;5019772;28;20404;-83
2024/03/01 00:55:28;;;;;;;47.08;22.92;;;;;;;3.88;100.00;96352.63;5017920;28;20409;-83
2024/03/01 00:57:54;;;;;;;51.95;24.88;;;;;;;3.89;100.00;96345.56;5016146;28;20408;-81
2024/03/01 01:00:21;;;;;;;57.45;25.75;;;;;;;3.92;100.00;96346.91;5021691;28;20412;-82
2024/03/01 01:02:48;;;;;;;53.60;25.90;;;;;;;3.89;100.00;96340.31;5022302;28;20806;-84
2024/03/01 01:05:15;;;;;;;66.90;28.58;;;;;;;3.92;100.00;96347.69;5019164;28;20411;-83
2024/03/01 01:07:41;;;;;;;64.95;29.75;;;;;;;3.86;100.00;96343.41;5022744;28;20397;-85
2024/03/01 01:10:08;;;;;;;63.15;28.48;;;;;;;3.84;100.00;96358.53;5025927;28;20424;-85
2024/03/01 01:12:37;;;;;;;56.70;26.42;;;;;;;3.82;100.00;96363.22;5028140;28;20412;-86
2024/03/01 01:15:04;;;;;;;61.40;27.90;;;;;;;3.84;100.00;96363.78;5027601;28;20397;-87
2024/03/01 01:17:30;;;;;;;57.60;26.58;;;;;;;3.84;100.00;96358.53;5031501;28;20472;-85
2024/03/01 01:19:58;;;;;;;54.65;26.02;;;;;;;3.85;100.00;96353.06;5025584;28;20409;-84
2024/03/01 01:22:25;;;;;;;46.67;23.15;;;;;;;3.86;100.00;96346.03;5024454;28;20420;-84
2024/03/01 01:24:51;;;;;;;44.95;21.42;;;;;;;3.87;100.00;96351.03;5025048;28;20472;-86
2024/03/01 01:27:17;;;;;;;42.58;21.20;;;;;;;3.89;100.00;96351.59;5024889;28;20409;-85
2024/03/01 01:29:45;;;;;;;57.33;25.93;;;;;;;3.94;100.00;96355.31;5025474;28;20421;-86
2024/03/01 01:32:11;;;;;;;49.93;24.53;;;;;;;3.94;100.00;96353.50;5024685;28;20416;-85
2024/03/01 01:34:37;;;;;;;55.97;26.40;;;;;;;3.97;100.00;96342.56;5025353;28;20411;-85
2024/03/01 01:37:04;;;;;;;49.50;24.10;;;;;;;4.00;100.00;96343.91;5024521;28;20416;-86
2024/03/01 01:39:30;;;;;;;51.03;24.73;;;;;;;4.01;100.00;96338.44;5024783;28;20458;-85
2024/03/01 01:41:58;;;;;;;46.30;23.00;;;;;;;4.04;100.00;96340.59;5027282;28;20435;-85
2024/03/01 01:44:24;;;;;;;52.60;24.52;;;;;;;4.07;100.00;96339.31;5024985;28;20413;-83
2024/03/01 01:46:52;;;;;;;63.20;29.40;;;;;;;4.14;100.00;96332.91;5024744;28;20400;-84
2024/03/01 01:49:22;;;;;;;79.38;34.97;;;;;;;4.19;100.00;96329.59;5024185;28;20440;-83
2024/03/01 01:51:49;;;;;;;65.80;31.75;;;;;;;4.23;100.00;96333.31;5025018;28;20501;-85
2024/03/01 01:54:15;;;;;;;80.00;35.20;;;;;;;4.27;100.00;96319.53;5024547;28;20413;-86
2024/03/01 01:56:42;;;;;;;66.25;31.33;;;;;;;4.34;100.00;96321.19;5024588;28;20405;-85
2024/03/01 01:59:10;;;;;;;61.33;28.35;;;;;;;4.38;100.00;96325.72;5024650;28;20417;-84
2024/03/01 02:01:36;;;;;;;54.00;25.92;;;;;;;4.39;100.00;96310.78;5028703;28;20500;-83
2024/03/01 02:04:04;;;;;;;40.53;21.40;;;;;;;4.40;100.00;96321.03;5022764;28;20441;-85
2024/03/01 02:06:31;;;;;;;38.93;19.70;;;;;;;4.39;100.00;96311.59;5008776;28;20491;-83
2024/03/01 02:08:57;;;;;;;37.85;18.77;;;;;;;4.39;100.00;96310.78;5008960;28;20422;-83
2024/03/01 02:11:26;;;;;;;51.33;23.20;;;;;;;4.38;100.00;96304.75;5009412;28;20429;-84
2024/03/01 02:13:54;;;;;;;63.67;28.57;;;;;;;4.40;100.00;96300.06;5010581;28;20470;-86
2024/03/01 02:16:20;;;;;;;58.63;27.08;;;;;;;4.38;100.00;96290.84;5009096;28;20402;-84
2024/03/01 02:18:48;;;;;;;59.30;27.25;;;;;;;4.33;100.00;96288.16;5008795;28;20413;-86
2024/03/01 02:21:18;;;;;;;55.95;25.85;;;;;;;4.27;100.00;96288.09;5008808;28;20407;-84
2024/03/01 02:23:46;;;;;;;52.72;25.60;;;;;;;4.24;100.00;96291.19;5009178;28;20883;-82
2024/03/01 02:26:13;;;;;;;46.33;21.88;;;;;;;4.20;100.00;96286.66;5009218;28;20402;-85
2024/03/01 02:28:44;;;;;;;59.22;25.60;;;;;;;4.19;100.00;96293.72;5008766;28;20419;-84
2024/03/01 02:31:10;;;;;;;56.55;27.17;;;;;;;4.19;100.00;96292.94;5009561;28;20402;-85
2024/03/01 02:33:36;;;;;;;56.58;26.25;;;;;;;4.15;100.00;96287.34;5009870;28;20485;-86
2024/03/01 02:36:03;;;;;;;51.75;25.60;;;;;;;4.11;100.00;96290.69;5012066;28;20415;-86
2024/03/01 02:38:29;;;;;;;60.03;26.63;;;;;;;4.06;100.00;96291.38;5011687;28;20550;-84
2024/03/01 02:40:57;;;;;;;51.03;25.98;;;;;;;4.03;100.00;96304.19;5012027;28;20410;-85
2024/03/01 02:43:23;;;;;;;61.30;27.67;;;;;;;4.05;100.00;96305.53;5012505;28;20418;-85
2024/03/01 02:45:49;;;;;;;60.67;28.75;;;;;;;4.05;100.00;96291.66;5008048;28;20445;-83
2024/03/01 02:48:15;;;;;;;67.93;31.20;;;;;;;4.08;100.00;96302.44;5009025;28;20399;-83
2024/03/01 02:50:41;;;;;;;54.15;25.23;;;;;;;4.09;100.00;96287.50;5007832;28;20418;-83
2024/03/01 02:53:07;;;;;;;47.40;22.42;;;;;;;4.09;100.00;96298.78;5008001;28;20406;-83
2024/03/01 02:55:33;;;;;;;62.38;29.10;;;;;;;4.11;100.00;96309.81;5008720;28;20395;-82
2024/03/01 02:58:02;;;;;;;58.83;27.30;;;;;;;4.11;100.00;96299.34;5008109;28;20419;-83
2024/03/01 03:00:28;;;;;;;80.15;33.67;;;;;;;4.18;100.00;96305.22;5009147;28;20402;-83
2024/03/01 03:02:54;;;;;;;67.55;30.15;;;;;;;4.22;100.00;96293.22;5008462;28;20414;-83
2024/03/01 03:05:21;;;;;;;55.22;25.65;;;;;;;4.26;100.00;96293.56;5007829;28;20407;-83
2024/03/01 03:07:47;;;;;;;52.22;23.13;;;;;;;4.29;100.00;96290.47;5009922;28;20432;-85
2024/03/01 03:10:17;;;;;;;43.38;21.45;;;;;;;4.32;100.00;96289.19;5008418;28;20418;-84
2024/03/01 03:12:44;;;;;;;45.92;22.80;;;;;;;4.34;100.00;96287.94;5007763;28;20426;-83
2024/03/01 03:15:13;;;;;;;41.10;21.58;;;;;;;4.34;100.00;96274.84;5007412;28;20403;-85
2024/03/01 03:17:39;;;;;;;37.60;18.95;;;;;;;4.36;100.00;96279.84;5008514;28;20403;-83
2024/03/01 03:20:11;;;;;;;56.50;26.65;;;;;;;4.36;100.00;96277.22;5010030;28;20406;-85
2024/03/01 03:22:38;;;;;;;52.15;26.00;;;;;;;4.36;100.00;96282.47;5010049;28;20967;-83
2024/03/01 03:25:05;;;;;;;46.38;23.13;;;;;;;4.39;100.00;96295.06;5009407;28;20866;-82
2024/03/01 03:27:32;;;;;;;77.20;33.47;;;;;;;4.49;100.00;96290.78;5006601;28;20418;-85
2024/03/01 03:29:58;;;;;;;60.13;27.77;;;;;;;4.50;100.00;96281.09;5007398;28;20453;-84
2024/03/01 03:32:26;;;;;;;46.20;22.67;;;;;;;4.49;100.00;96282.94;5007653;28;20398;-84
2024/03/01 03:34:52;;;;;;;46.97;22.63;;;;;;;4.50;100.00;96286.34;5007569;28;20441;-84
2024/03/01 03:37:20;;;;;;;40.78;21.42;;;;;;;4.50;100.00;96289.75;5008033;28;20422;-86
2024/03/01 03:39:46;;;;;;;65.40;29.77;;;;;;;4.54;100.00;96290.06;5007206;28;20402;-86
2024/03/01 03:42:12;;;;;;;78.97;34.50;;;;;;;4.54;100.00;96290.06;5006940;28;20437;-86
2024/03/01 03:44:38;;;;;;;81.50;35.08;;;;;;;4.54;100.00;96297.94;5010579;28;20453;-83
2024/03/01 03:47:04;;;;;;;67.27;32.57;;;;;;;4.56;100.00;96293.25;5017492;28;20469;-85
2024/03/01 03:49:32;;;;;;;72.70;33.72;;;;;;;4.57;100.00;96293.00;5010333;28;20426;-85
2024/03/01 03:51:58;;;;;;;65.03;31.27;;;;;;;4.64;100.00;96298.09;5007978;28;20407;-84
2024/03/01 03:54:25;;;;;;;78.30;33.40;;;;;;;4.62;100.00;96297.53;5006949;28;20505;-86
2024/03/01 03:56:53;;;;;;;73.32;33.40;;;;;;;4.58;100.00;96299.84;5007019;28;20406;-85
2024/03/01 03:59:19;;;;;;;71.50;33.03;;;;;;;4.60;100.00;96310.06;5006358;28;20421;-85
2024/03/01 04:01:45;;;;;;;68.90;31.67;;;;;;;4.58;100.00;96310.31;5006941;28;20886;-83
2024/03/01 04:04:11;;;;;;;75.88;34.03;;;;;;;4.56;100.00;96319.44;5006790;28;20468;-83
2024/03/01 04:06:39;;;;;;;73.68;33.33;;;;;;;4.54;100.00;96319.69;5006182;28;20394;-86
2024/03/01 04:09:09;;;;;;;75.13;33.60;;;;;;;4.54;100.00;96319.69;5006450;28;20482;-85
2024/03/01 04:11:36;;;;;;;79.07;34.95;;;;;;;4.56;100.00;96335.19;5007267;28;20438;-87
2024/03/01 04:14:02;;;;;;;71.57;32.93;;;;;;;4.57;100.00;96332.31;5007867;28;20403;-86
2024/03/01 04:16:28;;;;;;;78.22;34.63;;;;;;;4.56;100.00;96332.56;5006128;28;20474;-85
2024/03/01 04:18:55;;;;;;;64.07;31.60;;;;;;;4.59;100.00;96326.81;5006189;28;20406;-86
2024/03/01 04:21:21;;;;;;;55.97;26.38;;;;;;;4.60;100.00;96331.03;5006541;28;20411;-85
2024/03/01 04:23:48;;;;;;;60.58;29.13;;;;;;;4.62;100.00;96337.63;5005073;28;20820;-85
2024/03/01 04:26:14;;;;;;;56.58;27.63;;;;;;;4.63;100.00;96336.59;5005557;28;20418;-86
2024/03/01 04:28:41;;;;;;;69.03;30.15;;;;;;;4.70;100.00;96346.13;5006138;28;20798;-85
2024/03/01 04:31:07;;;;;;;66.75;31.45;;;;;;;4.79;100.00;96344.69;5007246;28;20418;-85
2024/03/01 04:33:37;;;;;;;58.95;28.40;;;;;;;4.74;100.00;96345.41;5008193;28;20433;-84
2024/03/01 04:36:04;;;;;;;59.33;28.23;;;;;;;4.68;100.00;96343.75;5011421;28;20417;-85
2024/03/01 04:38:30;;;;;;;54.08;25.83;;;;;;;4.68;100.00;96347.16;5007593;28;20402;-85
2024/03/01 04:40:58;;;;;;;59.20;28.63;;;;;;;4.66;100.00;96351.06;5008079;28;20433;-85
2024/03/01 04:43:26;;;;;;;51.10;26.17;;;;;;;4.63;100.00;96352.34;5008358;28;20463;-85
2024/03/01 04:45:53;;;;;;;66.45;30.70;;;;;;;4.74;100.00;96350.66;5008071;28;20983;-84
2024/03/01 04:48:19;;;;;;;65.85;31.95;;;;;;;4.80;100.00;96347.09;5007256;28;20417;-86
2024/03/01 04:50:46;;;;;;;55.08;25.88;;;;;;;4.71;100.00;96359.00;5007178;28;20426;-86
2024/03/01 04:53:12;;;;;;;57.08;26.10;;;;;;;4.69;100.00;96350.56;5018776;28;20401;-84
2024/03/01 04:55:38;;;;;;;55.63;25.40;;;;;;;4.64;100.00;96350.50;5033642;28;20401;-85
2024/03/01 04:58:06;;;;;;;47.45;22.13;;;;;;;4.60;100.00;96344.94;5036282;28;20761;-86
2024/03/01 05:00:34;;;;;;;51.08;24.17;;;;;;;4.58;100.00;96346.22;5037175;28;20388;-85
2024/03/01 05:03:06;;;;;;;47.85;21.98;;;;;;;4.53;100.00;96354.78;5044845;28;20401;-84
2024/03/01 05:05:32;;;;;;;39.85;19.15;;;;;;;4.51;100.00;96351.59;5034672;28;20412;-83
2024/03/01 05:07:59;;;;;;;48.22;21.80;;;;;;;4.51;100.00;96353.44;5024749;28;20411;-84
2024/03/01 05:10:25;;;;;;;44.70;21.10;;;;;;;4.49;100.00;96353.69;5030645;28;20502;-83
2024/03/01 05:12:51;;;;;;;46.60;21.70;;;;;;;4.49;100.00;96355.50;5032464;28;20466;-83
2024/03/01 05:15:18;;;;;;;38.67;19.65;;;;;;;4.49;100.00;96358.13;5032140;28;20435;-84
2024/03/01 05:17:45;;;;;;;46.87;21.83;;;;;;;4.48;100.00;96359.16;5034250;28;20425;-83
2024/03/01 05:20:12;;;;;;;54.88;25.88;;;;;;;4.49;100.00;96361.53;5026387;28;20395;-85
2024/03/01 05:22:39;;;;;;;53.05;24.85;;;;;;;4.47;100.00;96368.84;5032131;28;20810;-81
2024/03/01 05:25:14;;;;;;;57.13;26.67;;;;;;;4.48;100.00;96373.06;5034666;28;20406;-82
2024/03/01 05:27:40;;;;;;;45.37;21.97;;;;;;;4.47;100.00;96370.66;5026912;28;20901;-82
2024/03/01 05:30:12;;;;;;;57.30;23.83;;;;;;;4.49;100.00;96376.47;5040353;28;20498;-80
2024/03/01 05:32:41;;;;;;;60.60;26.40;;;;;;;4.51;100.00;96374.41;5029470;28;20420;-81
2024/03/01 05:35:08;;;;;;;51.20;23.42;;;;;;;4.50;100.00;96371.00;5021177;28;20401;-79
2024/03/01 05:37:34;;;;;;;39.42;19.85;;;;;;;4.51;100.00;96375.19;5025050;28;20491;-82
2024/03/01 05:40:01;;;;;;;39.28;19.73;;;;;;;4.52;100.00;96379.38;5022112;28;20932;-84
2024/03/01 05:42:27;;;;;;;38.85;18.45;;;;;;;4.53;100.00;96383.59;5034684;28;20482;-81
2024/03/01 05:44:53;;;;;;;44.88;19.80;;;;;;;4.56;100.00;96384.97;5041009;28;20395;-82
2024/03/01 05:47:19;;;;;;;53.15;25.60;;;;;;;4.57;100.00;96384.75;5032244;28;20493;-81
2024/03/01 05:49:47;;;;;;;59.78;27.23;;;;;;;4.60;100.00;96376.38;5027524;28;20420;-83
2024/03/01 05:52:13;;;;;;;50.38;23.40;;;;;;;4.60;100.00;96380.81;5027648;28;20440;-83
2024/03/01 05:54:39;;;;;;;42.08;21.05;;;;;;;4.59;100.00;96384.47;5027405;28;20405;-84
2024/03/01 05:57:06;;;;;;;56.10;24.60;;;;;;;4.59;100.00;96385.28;5027306;28;20435;-86
2024/03/01 05:59:32;;;;;;;44.67;21.03;;;;;;;4.59;100.00;96384.47;5026526;28;20409;-85
2024/03/01 06:01:58;;;;;;;63.90;26.50;;;;;;;4.59;100.00;96390.50;5029171;28;20869;-85
2024/03/01 06:04:24;;;;;;;56.43;27.13;;;;;;;4.61;100.00;96398.16;5028391;28;20439;-83
2024/03/01 06:06:52;;;;;;;61.90;26.27;;;;;;;4.63;100.00;96396.09;5029949;28;20401;-81
2024/03/01 06:09:18;;;;;;;73.57;31.75;;;;;;;4.62;100.00;96400.53;5031365;28;20424;-85
2024/03/01 06:11:44;;;;;;;81.93;33.22;;;;;;;4.61;100.00;96401.56;5041767;28;20395;-83
2024/03/01 06:14:11;;;;;;;70.22;30.63;;;;;;;4.63;100.00;96403.97;5031623;28;20433;-86
2024/03/01 06:16:37;;;;;;;75.50;31.75;;;;;;;4.64;100.00;96403.72;5032258;28;20472;-86
2024/03/01 06:19:03;;;;;;;68.57;30.00;;;;;;;4.68;100.00;96410.06;5033502;28;20407;-85
2024/03/01 06:21:29;;;;;;;63.60;27.33;;;;;;;4.70;100.00;96406.41;5030930;28;20865;-83
2024/03/01 06:23:57;;;;;;;59.90;27.47;;;;;;;4.72;100.00;96412.22;5024726;28;20540;-83
2024/03/01 06:26:23;;;;;;;67.55;29.60;;;;;;;4.74;100.00;96405.69;5021871;28;20401;-83
2024/03/01 06:28:49;;;;;;;58.97;26.77;;;;;;;4.76;100.00;96414.13;5019558;28;20495;-85
2024/03/01 06:31:15;;;;;;;70.25;30.08;;;;;;;4.73;100.00;96409.38;5022760;28;20425;-84
2024/03/01 06:33:42;;;;;;;68.35;29.40;;;;;;;4.77;100.00;96413.09;5023171;28;20917;-81
2024/03/01 06:36:08;;;;;;;66.30;29.35;;;;;;;4.77;100.00;96417.53;5022666;28;20821;-84
2024/03/01 06:38:36;;;;;;;61.08;26.70;;;;;;;4.78;100.00;96406.81;5014376;28;20470;-81
2024/03/01 06:41:05;;;;;;;52.42;25.50;;;;;;;4.78;100.00;96413.88;5016950;28;20397;-84
2024/03/01 06:43:31;;;;;;;63.78;27.98;;;;;;;4.78;100.00;96414.69;5016867;28;20424;-84
2024/03/01 06:45:57;;;;;;;60.35;27.27;;;;;;;4.80;100.00;96406.59;5020769;28;20420;-85
2024/03/01 06:48:24;;;;;;;64.80;28.70;;;;;;;4.89;100.00;96410.38;5015034;28;20407;-83
2024/03/01 06:50:50;;;;;;;62.10;28.52;;;;;;;4.88;100.00;96417.47;5014985;28;20420;-84
2024/03/01 06:53:16;;;;;;;65.05;28.10;;;;;;;4.89;100.00;96411.19;5009872;28;20455;-84
2024/03/01 06:55:42;;;;;;;65.25;28.27;;;;;;;4.87;100.00;96412.47;5011268;28;20421;-85
2024/03/01 06:58:10;;;;;;;52.00;24.02;;;;;;;4.87;100.00;96409.84;5010648;28;20508;-84
2024/03/01 07:00:36;;;;;;;57.15;26.27;;;;;;;4.89;100.00;96413.81;5018797;28;20917;-82
2024/03/01 07:03:03;;;;;;;64.55;28.23;;;;;;;4.97;100.00;96416.03;5029151;28;20436;-83
2024/03/01 07:05:30;;;;;;;69.72;29.35;;;;;;;4.98;100.00;96407.13;5027862;28;20413;-84
2024/03/01 07:07:56;;;;;;;56.97;25.70;;;;;;;5.09;100.00;96413.34;5027773;28;20428;-83
2024/03/01 07:10:22;;;;;;;66.25;29.13;;;;;;;5.13;100.00;96408.38;5029818;28;20755;-83
2024/03/01 07:12:49;;;;;;;74.60;29.02;;;;;;;5.15;100.00;96401.09;5033286;28;20418;-84
2024/03/01 07:15:17;;;;;;;52.83;25.08;;;;;;;5.24;100.00;96410.94;5027513;28;20394;-83
2024/03/01 07:17:43;;;;;;;59.30;26.70;;;;;;;5.38;100.00;96408.75;5026793;28;20404;-85
2024/03/01 07:20:10;;;;;;;67.57;27.13;;;;;;;5.37;100.00;96402.72;5031260;28;20765;-83
2024/03/01 07:22:36;;;;;;;58.53;26.77;;;;;;;5.43;100.00;96407.00;5033912;28;20477;-83
2024/03/01 07:25:04;;;;;;;57.30;25.73;;;;;;;5.45;100.00;96410.19;5028411;28;20483;-83
2024/03/01 07:27:30;;;;;;;48.10;23.38;;;;;;;5.60;100.00;96401.72;5030259;28;20397;-84
2024/03/01 07:29:56;;;;;;;56.95;24.27;;;;;;;5.66;100.00;96400.72;5027285;28;20435;-84
2024/03/01 07:32:24;;;;;;;56.50;25.10;;;;;;;5.68;100.00;96401.28;5010465;28;20432;-83
2024/03/01 07:34:50;;;;;;;50.63;24.87;;;;;;;5.72;100.00;96396.31;5015379;28;20453;-83
2024/03/01 07:37:16;;;;;;;57.22;24.38;;;;;;;5.86;100.00;96394.16;5017891;28;20405;-83
2024/03/01 07:39:42;;;;;;;53.13;23.83;;;;;;;5.96;100.00;96396.91;5019409;28;20412;-83
2024/03/01 07:42:08;;;;;;;51.60;22.45;;;;;;;6.16;100.00;96392.66;5019318;28;20401;-84
2024/03/01 07:44:35;;;;;;;45.80;21.30;;;;;;;6.26;100.00;96386.72;5019628;28;20417;-83
2024/03/01 07:47:02;;;;;;;47.30;21.70;;;;;;;6.26;100.00;96389.34;5020577;28;20409;-82
2024/03/01 07:49:31;;;;;;;47.28;21.08;;;;;;;6.29;100.00;96380.19;5019340;28;20419;-85
2024/03/01 07:51:57;;;;;;;43.40;21.02;;;;;;;6.34;100.00;96385.47;5019345;28;20459;-84
2024/03/01 07:54:23;;;;;;;46.33;21.23;;;;;;;6.43;100.00;96379.53;5019796;28;20488;-84
2024/03/01 07:56:49;;;;;;;46.00;21.83;;;;;;;6.42;100.00;96380.56;5018425;28;21289;-82
2024/03/01 07:59:15;;;;;;;44.67;20.20;;;;;;;6.48;100.00;96378.78;5016884;28;20408;-82
2024/03/01 08:01:41;;;;;;;45.67;20.55;;;;;;;6.71;100.00;96382.91;5021074;28;20404;-83
2024/03/01 08:04:08;;;;;;;43.20;21.00;;;;;;;6.78;100.00;96372.97;5020657;28;20428;-83
2024/03/01 08:06:35;;;;;;;39.20;18.48;;;;;;;6.84;100.00;96370.13;5020888;28;20723;-83
2024/03/01 08:09:02;;;;;;;40.72;19.40;;;;;;;6.90;100.00;96368.34;5021390;28;20408;-86
2024/03/01 08:11:38;;;;;;;36.13;18.05;;;;;;;6.92;100.00;96376.75;5024098;28;20412;-83
2024/03/01 08:14:10;;;;;;;38.40;19.30;;;;;;;7.02;100.00;96378.69;5004801;28;20425;-81
2024/03/01 08:16:37;;;;;;;35.83;17.75;;;;;;;7.32;100.00;96378.88;4999318;28;20398;-79
2024/03/01 08:19:03;;;;;;;46.38;18.23;;;;;;;7.40;100.00;96388.94;5000822;28;20417;-85
2024/03/01 08:21:29;;;;;;;44.33;19.30;;;;;;;7.28;100.00;96377.81;5001253;28;20914;-85
2024/03/01 08:24:00;;;;;;;35.75;17.10;;;;;;;7.24;100.00;96385.41;5002730;28;20406;-84
2024/03/01 08:26:26;;;;;;;37.95;18.20;;;;;;;7.27;100.00;96389.38;5004214;28;20395;-85
2024/03/01 08:29:00;;;;;;;36.20;18.30;;;;;;;7.52;100.00;96380.84;5009232;28;20414;-85
2024/03/01 08:31:29;;;;;;;36.78;17.65;;;;;;;7.35;100.00;96383.66;5008043;28;20453;-84
2024/03/01 08:34:01;;;;;;;34.70;16.73;;;;;;;7.24;100.00;96382.78;5006400;28;20422;-84
2024/03/01 08:36:28;;;;;;;35.85;17.08;;;;;;;7.31;100.00;96387.81;5005270;28;20473;-85
2024/03/01 08:39:14;;;;;;;37.35;17.58;;;;;;;7.31;100.00;96379.91;5008949;28;20403;-87
2024/03/01 08:41:44;;;;;;;33.20;16.67;;;;;;;7.56;100.00;96387.19;5008528;28;20402;-87
2024/03/01 08:44:49;;;;;;;35.13;15.93;;;;;;;7.74;100.00;96390.16;5008346;28;20403;-86
2024/03/01 08:47:27;;;;;;;36.30;16.63;;;;;;;7.71;100.00;96387.25;5024653;28;20405;-87
2024/03/01 08:50:36;;;;;;;37.53;16.08;;;;;;;7.93;100.00;96387.88;5037543;28;20435;-85
2024/03/01 08:53:33;;;;;;;32.20;14.95;;;;;;;7.89;100.00;96391.28;5033447;28;20432;-84
2024/03/01 08:56:01;;;;;;;27.55;13.23;;;;;;;8.16;100.00;96387.41;5026493;28;20443;-86
2024/03/01 08:58:29;;;;;;;27.60;13.93;;;;;;;8.09;100.00;96393.97;5025767;28;20405;-86
2024/03/01 09:00:56;;;;;;;27.42;12.65;;;;;;;8.15;100.00;96393.72;5027462;28;20451;-85
2024/03/01 09:03:24;;;;;;;23.97;12.40;;;;;;;8.09;100.00;96391.34;5030491;28;20545;-85
2024/03/01 09:05:52;;;;;;;27.70;12.52;;;;;;;8.09;100.00;96392.13;5030158;28;20421;-84
2024/03/01 09:08:24;;;;;;;24.60;12.60;;;;;;;8.20;100.00;96392.16;5028624;28;20396;-85
2024/03/01 09:10:53;;;;;;;23.20;11.68;;;;;;;8.02;100.00;96394.22;5025418;28;20421;-84
2024/03/01 09:13:21;;;;;;;26.33;12.07;;;;;;;8.02;100.00;96399.50;5025653;28;20479;-83
2024/03/01 09:15:48;;;;;;;25.17;11.52;;;;;;;7.79;100.00;96399.94;5022542;28;20405;-83
2024/03/01 09:18:40;;;;;;;21.70;11.20;;;;;;;7.87;100.00;96394.16;5020513;28;20419;-83
2024/03/01 09:21:34;;;;;;;25.87;11.93;;;;;;;7.66;100.00;96403.84;5020666;28;20496;-83
2024/03/01 09:24:01;;;;;;;21.00;10.48;;;;;;;7.76;100.00;96406.50;5022118;28;20428;-83
2024/03/01 09:26:28;;;;;;;28.25;10.68;;;;;;;7.76;100.00;96406.50;5020688;28;20804;-83
2024/03/01 09:29:01;;;;;;;20.60;10.25;;;;;;;7.93;100.00;96408.94;5027772;28;20400;-83
2024/03/01 09:31:28;;;;;;;21.33;10.47;;;;;;;7.81;100.00;96410.22;5026548;28;20443;-84
2024/03/01 09:33:55;;;;;;;20.77;10.73;;;;;;;7.71;100.00;96414.38;5026251;28;20492;-83
2024/03/01 09:36:21;;;;;;;22.40;11.15;;;;;;;7.62;100.00;96407.22;5027551;28;20448;-84
2024/03/01 09:38:51;;;;;;;21.52;11.80;;;;;;;7.58;100.00;96406.94;5028109;28;20408;-83
2024/03/01 09:41:27;;;;;;;20.83;10.48;;;;;;;7.39;100.00;96414.47;5027802;28;20397;-85
2024/03/01 09:44:04;;;;;;;23.67;10.70;;;;;;;7.39;100.00;96416.31;5028296;28;20400;-84
2024/03/01 09:46:40;;;;;;;20.52;10.23;;;;;;;7.34;100.00;96421.53;5027600;28;20770;-86
2024/03/01 09:49:24;;;;;;;22.95;9.88;;;;;;;7.60;100.00;96425.91;5027503;28;20388;-85
2024/03/01 09:52:01;;;;;;;17.30;10.00;;;;;;;7.56;100.00;96424.03;5030090;28;20842;-85
2024/03/01 09:54:36;;;;;;;19.45;10.23;;;;;;;7.65;100.00;96428.59;5030524;28;20456;-86
2024/03/01 09:57:12;;;;;;;17.35;9.13;;;;;;;7.56;100.00;96430.09;5031439;28;20393;-85
2024/03/01 09:59:46;;;;;;;19.35;10.65;;;;;;;7.60;100.00;96436.44;5034197;28;20443;-84
2024/03/01 10:02:25;;;;;;;21.77;10.20;;;;;;;7.54;100.00;96429.56;5028657;28;20397;-85
2024/03/01 10:05:07;;;;;;;21.03;10.70;;;;;;;7.63;100.00;96437.78;5026210;28;20465;-85
2024/03/01 10:07:42;;;;;;;21.08;10.27;;;;;;;7.54;100.00;96436.66;5025900;28;20432;-85
2024/03/01 10:10:33;;;;;;;20.70;10.35;;;;;;;7.50;100.00;96440.88;5025431;28;20416;-83
2024/03/01 10:13:08;;;;;;;21.98;10.52;;;;;;;7.39;100.00;96443.44;5024893;28;20393;-84
2024/03/01 10:15:43;;;;;;;20.55;9.77;;;;;;;7.42;100.00;96446.59;5026754;28;20396;-85
2024/03/01 10:18:33;;;;;;;20.30;10.07;;;;;;;7.49;100.00;96447.19;5027255;28;20393;-85
2024/03/01 10:21:14;;;;;;;18.92;10.00;;;;;;;7.33;100.00;96444.44;5025663;28;20405;-85
2024/03/01 10:23:51;;;;;;;21.10;9.57;;;;;;;7.27;100.00;96440.19;5029069;28;20396;-83
2024/03/01 10:26:24;;;;;;;19.00;9.10;;;;;;;7.41;100.00;96447.66;5030348;28;20446;-83
2024/03/01 10:29:08;;;;;;;15.80;8.60;;;;;;;7.42;100.00;96436.88;5026448;28;20397;-82
2024/03/01 10:31:48;;;;;;;13.27;8.10;;;;;;;7.53;100.00;96438.50;5024759;28;20419;-82
2024/03/01 10:34:24;;;;;;;15.93;8.70;;;;;;;7.81;100.00;96439.19;5028698;28;20389;-85
2024/03/01 10:36:56;;;;;;;15.82;8.15;;;;;;;7.79;100.00;96439.44;5028468;28;20417;-85
2024/03/01 10:39:33;;;;;;;19.80;9.35;;;;;;;7.78;100.00;96436.03;5030227;28;20412;-85
2024/03/01 10:42:08;;;;;;;18.77;8.85;;;;;;;7.61;100.00;96434.59;5031645;28;20396;-86
2024/03/01 10:44:40;;;;;;;20.20;9.77;;;;;;;7.63;100.00;96440.41;5034674;28;20385;-85
2024/03/01 10:47:17;;;;;;;19.42;9.38;;;;;;;7.69;100.00;96439.38;5035206;28;20404;-86
2024/03/01 10:49:57;;;;;;;18.70;9.57;;;;;;;7.63;100.00;96445.69;5034589;28;20417;-85
2024/03/01 10:52:32;;;;;;;17.40;8.75;;;;;;;7.52;100.00;96444.81;5034431;28;20404;-86
2024/03/01 10:55:01;;;;;;;21.80;9.90;;;;;;;7.53;100.00;96441.13;5029971;28;20393;-84
2024/03/01 10:57:29;;;;;;;20.23;10.05;;;;;;;7.56;100.00;96443.28;5029298;28;20404;-85
2024/03/01 11:00:02;;;;;;;22.15;10.43;;;;;;;7.55;100.00;96444.31;5029918;28;20403;-85
2024/03/01 11:02:35;;;;;;;22.80;10.30;;;;;;;7.63;100.00;96451.75;5032680;28;20465;-86
2024/03/01 11:05:09;;;;;;;18.13;9.55;;;;;;;7.71;100.00;96451.25;5033092;28;20396;-85
2024/03/01 11:07:43;;;;;;;18.45;9.77;;;;;;;7.97;100.00;96446.13;5031974;28;20428;-85
2024/03/01 11:10:15;;;;;;;21.13;9.98;;;;;;;8.04;100.00;96444.03;5031813;28;20435;-86
2024/03/01 11:12:49;;;;;;;19.35;10.00;;;;;;;8.20;100.00;96439.59;5037274;28;20412;-87
2024/03/01 11:15:20;;;;;;;20.08;9.88;;;;;;;8.40;100.00;96437.06;5042620;28;20403;-87
2024/03/01 11:17:49;;;;;;;16.77;9.57;;;;;;;8.61;100.00;96436.06;5041332;28;20436;-85
2024/03/01 11:20:21;;;;;;;18.92;8.68;;;;;;;8.88;100.00;96428.69;5042619;28;20430;-84
2024/03/01 11:22:53;;;;;;;18.70;8.80;;;;;;;8.90;100.00;96434.50;5029141;28;20455;-83
2024/03/01 11:25:26;;;;;;;17.02;9.45;;;;;;;8.97;100.00;96422.91;5027070;28;20405;-82